Řízení letového provozu České republiky  
Aktualizace dat:  17.04.2021 21:08:25 UTC English version
   METEO Zobrazení stránky:  17.04.2021 21:09:16 UTC  
vysvětlivky
METAR EDDB 172050Z 01004KT 9999 -RA FEW035 OVC049 08/08 Q1020 NOSIG=
METAR EDDC 172050Z 23003KT 9999 SCT025 BKN035 06/03 Q1020=
METAR EDDE 172050Z 25006KT 9999 FEW023 SCT030 BKN040 05/02 Q1021=
METAR EDDF 172050Z 35003KT 310V010 9999 FEW041 BKN049 08/M01 Q1022 NOSIG=
METAR EDDM 172050Z VRB02KT 9999 -RA OVC041 05/01 Q1019 NOSIG=
METAR EDDN 172050Z 34004KT 9999 SCT025 BKN034 04/02 Q1021=
METAR EDDP 172050Z 24005KT 9999 VCSH BKN035CB 07/06 Q1020 NOSIG=
METAR EDQM NIL
METAR EPBY 172100Z 36003KT 330V030 CAVOK 08/07 Q1019=
METAR EPGD 172100Z VRB02KT CAVOK 04/02 Q1021=
METAR EPKK 172100Z 24003KT 2000 -RA BR BKN005 BKN016 04/04 Q1019=
METAR EPKT 172100Z 25004KT 0250 R27/0800N FG VV001 04/04 Q1019=
METAR EPLL 172100Z 28004KT 2300 BR OVC003 06/06 Q1019=
METAR EPPO 172100Z 15004KT 9999 SCT017 BKN030 08/06 Q1020=
METAR EPRZ 172100Z VRB02KT CAVOK 02/02 Q1019=
METAR EPWA 172100Z VRB02KT 0550 0250E R33/0500U FG FEW001 05/04 Q1019 TEMPO 0600 FG=
METAR EPWR 172100Z 29003KT 8000 SCT005 BKN007 OVC013 06/05 Q1020=
METAR LHBP 172100Z 00000KT 9999 SCT049 03/00 Q1017 NOSIG=
METAR LHSM 172045Z AUTO 02009KT 9000 BKN043 BKN061 08/02 Q1018=
METAR LKBC 172100Z AUTO VRB01KT 9000 -DZ SCT030 OVC045 03/01 Q1020=
METAR LKCV 172100Z 21003KT 9999 OVC029 04/02 Q1020 NOSIG RMK BLU BLU=
METAR LKKB 172100Z 22001KT 9999 OVC028 04/02 Q1020 RMK BLU=
METAR LKKU NIL
METAR LKKV 172100Z 00000KT 5000 BR SCT010 OVC013 02/00 Q1019 RMK REG QNH 1017=
METAR LKLN 172100Z AUTO 27002KT 7000 -RA OVC014 03/03 Q1021=
METAR LKMT 172100Z 04002KT 6000 -RA OVC013 05/04 Q1019 NOSIG RMK REG QNH 1017=
METAR LKNA 172100Z 32007KT 5000 BR OVC018 02/01 Q1019 RMK WHT=
METAR LKPD 172100Z 28005KT 9999 SCT029 OVC037 04/03 Q1020 RMK BLU=
METAR LKPJ 172100Z AUTO VRB02KT 9999 OVC020 06/03 Q1019=
METAR LKPR 172100Z 28002KT 9999 OVC024 03/02 Q1020 NOSIG RMK REG QNH 1017=
METAR LKTB 172100Z 36005KT 9999 BKN023 OVC030 05/01 Q1019 NOSIG RMK REG QNH 1017=
METAR LKVO NIL
METAR LOWI 172050Z AUTO 09005KT 060V130 9999 FEW040 BKN050 06/M00 Q1018=
METAR LOWL 172050Z AUTO 08003KT 9999 FEW034 BKN040 06/02 Q1019=
METAR LOWS 172050Z AUTO VRB01KT 9999 FEW024 SCT042 BKN070 05/02 Q1019=
METAR LOWW 172050Z 33007KT 9999 FEW034 SCT046 06/01 Q1019 NOSIG=
METAR LZIB 172100Z 31006KT CAVOK 07/02 Q1019=
METAR LZKZ 172100Z 01007KT CAVOK 06/03 Q1018=
METAR LZMC NIL
METAR LZPP 172100Z AUTO 33010KT 9999 07/02 Q1018=
METAR LZSL NIL
METAR LZTT 172100Z VRB02KT 9999 OVC016 03/01 Q1017=
METAR LZZI 172100Z 04002KT 9999 BKN035 05/02 Q1019=